• Join FlightAware (Why Join?)
  • Login
  • US Flag 
11:38PM EDT


 

Airport Tracker/Info


-or-


 

Live Flight TrackerFlight Track Log ✈ DAL6115 ✈ 16-Apr-2013 ✈ KJFK - KROC

Flight Track Log - Related Links

Times and Time Zones

All times are in EDT time to prevent confusion due to time zone crossing. See the DAL6115 flight status page for this flight to view local times or setup timezone preferences in your user account.

Time Position Orientation Groundspeed Altitude Reporting Facility
EDT Latitude Longitude Course Direction KTS MPH feet Rate Location/Type
09:47AM 40.6167 -73.8000 316° Northwest 158 182 1,700  Level New York TRACON
09:48AM 40.5667 -73.8000 180° South 225 259 4,100 2,400 Climbing New York TRACON
09:49AM 40.5833 -73.7167 75° East 271 312 6,600 2,400 Climbing New York TRACON
09:50AM 40.8784 -74.1155 315° West  Level FlightAware Approximate
09:50AM 40.6500 -73.6500 37° Northeast 297 342 8,900  Level New York TRACON
09:51AM 40.9434 -74.2009 316° Northwest  Level FlightAware Approximate
09:51AM 40.7167 -73.6000 30° Northeast 314 361 11,000  Level New York TRACON
09:52AM 41.0090 -74.2854 316° Northwest  Level FlightAware Approximate
09:52AM 40.8000 -73.6000 360° North 318 366 12,400  Level New York TRACON
09:53AM 40.8833 -73.6333 343° North 330 380 14,500 1,800 Climbing New York TRACON
09:54AM 40.9333 -73.7167 308° West 320 368 16,000 1,260 Climbing New York TRACON
09:55AM 40.9667 -73.8333 291° West 338 389 17,000 480 Climbing New York TRACON
09:56AM 41.0167 -73.9500 300° West 376 433 17,000  Level New York TRACON
09:57AM 41.0667 -74.0833 296° West 391 450 17,000 780 Level New York TRACON
09:59AM 41.1644 -74.3897 293° West 372 428 19,900 1,320 Climbing New York Center
10:00AM 41.2044 -74.5106 294° West 358 412 21,700 1,020 Climbing New York Center
10:01AM 41.2550 -74.6236 301° West 353 406 22,000 120 Climbing New York Center
10:02AM 41.3161 -74.7294 308° West 370 426 22,000  Level New York Center
10:03AM 41.3872 -74.8414 310° West 396 456 22,000  Level New York Center
10:04AM 41.4542 -74.9533 309° West 401 461 22,000  Level New York Center
10:05AM 41.5231 -75.0631 310° West 396 456 22,000  Level New York Center
10:06AM 41.5831 -75.1833 304° West 390 449 22,000  Level New York Center
10:07AM 41.6197 -75.3161 290° West 385 443 22,000  Level New York Center
10:08AM 41.6564 -75.4464 291° West 380 437 22,000  Level New York Center
10:09AM 41.6950 -75.5767 292° West 380 437 22,000  Level New York Center
10:10AM 41.7311 -75.7100 290° West 380 437 22,000  Level New York Center
10:11AM 41.7694 -75.8408 291° West 380 437 22,000  Level New York Center
10:12AM 41.8053 -75.9714 290° West 380 437 22,000  Level New York Center
10:13AM 41.8467 -76.1167 291° West 374 430 22,000  Level New York Center
10:14AM 41.8803 -76.2475 289° West 374 430 22,000  Level New York Center
10:15AM 41.9181 -76.3789 291° West 374 430 22,000  Level New York Center
10:16AM 41.9553 -76.5131 290° West 374 430 22,000  Level New York Center
10:17AM 41.9906 -76.6444 290° West 374 430 22,000  Level New York Center
10:19AM 42.0522 -76.8692 290° West 375 432 22,000 -600 Level Cleveland Center
10:20AM 42.1081 -76.9864 303° West 380 437 20,500 -1,500 Descending Cleveland Center
10:21AM 42.2133 -77.0197 347° North 348 400 19,000 -1,440 Descending Cleveland Center
10:22AM 42.3217 -77.0164 North 348 400 17,700 -1,380 Descending Cleveland Center
10:23AM 42.4278 -77.0106 North 363 418 16,300 -780 Descending Cleveland Center
10:24AM 42.5322 -77.0186 357° North 373 429 16,200 -240 Descending Cleveland Center
10:25AM 42.5925 -77.0744 326° Northwest 357 411 15,900 -540 Descending Cleveland Center
10:25AM 42.6097 -77.0933 321° Northwest 339 390 15,700 -1,320 Descending Cleveland Center
10:26AM 42.6614 -77.1525 320° Northwest 315 362 14,600 -1,440 Descending Cleveland Center
10:26AM 42.6806 -77.1683 329° Northwest 339 390 14,300 -1,620 Descending Cleveland Center
10:27AM 42.7483 -77.1958 343° North 324 373 13,000 -1,500 Descending Cleveland Center
10:27AM 42.7672 -77.2061 338° Northwest 326 375 12,800 -1,620 Descending Cleveland Center
10:28AM 42.8267 -77.2397 337° Northwest 299 344 11,400 -1,680 Descending Cleveland Center
10:29AM 42.9050 -77.2867 336° Northwest 265 305 9,700 -1,800 Descending Cleveland Center
10:30AM 42.9728 -77.3200 340° North 246 283 7,600 -1,920 Descending Cleveland Center
10:31AM 43.0383 -77.3561 338° Northwest 242 278 5,700 -1,560 Descending Cleveland Center
10:31AM 43.0383 -77.3561 338° Northwest 246 283 5,900 -1,440 Climbing Cleveland Center
10:32AM 43.0936 -77.3931 334° Northwest 234 269 4,300 -1,380 Descending Cleveland Center
10:33AM 43.1306 -77.4453 314° West 210 242 3,200 -900 Descending Cleveland Center
10:34AM 43.1572 -77.5122 299° West 199 229 2,600 -480 Descending Cleveland Center
10:35AM 43.1781 -77.5853 291° West 183 211 2,300 -300 Descending Cleveland Center